createdAt,value
2019-03-02T00:01:38.205Z,76.89
2019-03-02T00:04:10.072Z,76.84
2019-03-02T00:06:40.570Z,76.99
2019-03-02T00:09:10.647Z,76.81
2019-03-02T00:11:40.668Z,76.75
2019-03-02T00:14:10.751Z,76.52
2019-03-02T00:16:43.359Z,76.58
2019-03-02T00:19:12.625Z,76.25
2019-03-02T00:21:42.651Z,76.20
2019-03-02T00:24:12.693Z,75.85
2019-03-02T00:26:45.701Z,75.93
2019-03-02T00:29:14.496Z,75.85
2019-03-02T00:31:44.535Z,75.61
2019-03-02T00:34:14.596Z,75.59
2019-03-02T00:36:44.643Z,75.45
2019-03-02T00:39:15.632Z,75.65
2019-03-02T00:41:46.412Z,75.66
2019-03-02T00:44:16.426Z,75.45
2019-03-02T00:46:46.475Z,75.48
2019-03-02T00:49:19.554Z,75.35
2019-03-02T00:51:48.160Z,75.65
2019-03-02T00:54:18.241Z,75.97
2019-03-02T00:56:48.272Z,76.25
2019-03-02T00:59:18.292Z,76.45
2019-03-02T01:01:48.352Z,76.47
2019-03-02T01:04:18.358Z,75.93
2019-03-02T01:06:48.742Z,76.23
2019-03-02T01:09:20.057Z,76.02
2019-03-02T01:11:50.252Z,76.37
2019-03-02T01:14:20.219Z,76.58
2019-03-02T01:16:51.655Z,76.37
2019-03-02T01:19:21.959Z,76.67
2019-03-02T01:21:51.977Z,76.52
2019-03-02T01:24:21.986Z,77.05
2019-03-02T01:26:52.152Z,76.84
2019-03-02T01:29:22.204Z,76.51
2019-03-02T01:31:52.207Z,76.56
2019-03-02T01:34:22.184Z,76.13
2019-03-02T01:36:52.202Z,76.21
2019-03-02T01:39:22.196Z,76.04
2019-03-02T01:41:53.929Z,76.19
2019-03-02T01:44:24.118Z,76.08
2019-03-02T01:46:54.480Z,75.41
2019-03-02T01:49:24.494Z,75.71
2019-03-02T01:51:54.729Z,75.68
2019-03-02T01:54:26.204Z,75.34
2019-03-02T01:56:56.282Z,75.40
2019-03-02T01:59:26.358Z,75.56
2019-03-02T02:01:59.701Z,75.31
2019-03-02T02:04:28.068Z,75.27
2019-03-02T02:06:58.086Z,75.49
2019-03-02T02:09:28.137Z,75.44
2019-03-02T02:11:58.716Z,75.09
2019-03-02T02:14:28.743Z,75.32
2019-03-02T02:16:58.866Z,75.09
2019-03-02T02:19:28.893Z,75.13
2019-03-02T02:22:02.180Z,75.01
2019-03-02T02:24:30.712Z,74.93
2019-03-02T02:27:00.694Z,74.86
2019-03-02T02:29:30.690Z,74.93
2019-03-02T02:32:00.684Z,74.90
2019-03-02T02:34:30.685Z,74.47
2019-03-02T02:37:00.682Z,74.32
2019-03-02T02:39:33.471Z,74.19
2019-03-02T02:42:05.086Z,74.56
2019-03-02T02:44:37.727Z,74.39
2019-03-02T02:47:07.173Z,74.30
2019-03-02T02:49:37.627Z,74.09
2019-03-02T02:52:07.672Z,74.06
2019-03-02T02:54:37.744Z,73.79
2019-03-02T02:57:07.812Z,73.97
2019-03-02T02:59:38.547Z,73.84
2019-03-02T03:02:10.728Z,73.79
2019-03-02T03:04:41.386Z,74.08
2019-03-02T03:07:12.467Z,73.81
2019-03-02T03:10:06.608Z,74.02
2019-03-02T03:12:36.596Z,74.21
2019-03-02T03:15:06.880Z,73.88
2019-03-02T03:17:36.877Z,73.92
2019-03-02T03:20:10.609Z,73.77
2019-03-02T03:22:40.957Z,74.01
2019-03-02T03:25:13.918Z,74.07
2019-03-02T03:27:42.345Z,74.35
2019-03-02T03:30:14.158Z,74.43
2019-03-02T03:32:54.722Z,74.03
2019-03-02T03:35:17.816Z,74.56
2019-03-02T03:37:51.375Z,74.40
2019-03-02T03:40:20.177Z,74.46
2019-03-02T03:42:52.835Z,74.55
2019-03-02T03:45:22.932Z,74.19
2019-03-02T03:47:52.962Z,74.49
2019-03-02T03:50:23.076Z,74.41
2019-03-02T03:52:53.100Z,74.46
2019-03-02T03:55:26.868Z,74.24
2019-03-02T03:58:00.617Z,74.14
2019-03-02T04:00:26.562Z,74.21
2019-03-02T04:02:56.536Z,74.22
2019-03-02T04:05:26.610Z,74.46
2019-03-02T04:07:56.599Z,74.37
2019-03-02T04:10:27.946Z,74.56
2019-03-02T04:13:03.819Z,74.30
2019-03-02T04:15:29.816Z,74.40
2019-03-02T04:17:59.841Z,74.21
2019-03-02T04:20:33.370Z,74.42
2019-03-02T04:23:06.070Z,74.46
2019-03-02T04:25:36.084Z,74.06
2019-03-02T04:28:06.143Z,74.27
2019-03-02T04:30:36.163Z,74.07
2019-03-02T04:33:07.557Z,74.39
2019-03-02T04:35:37.693Z,74.17
2019-03-02T04:38:07.722Z,73.81
2019-03-02T04:40:37.755Z,73.75
2019-03-02T04:43:07.833Z,74.27
2019-03-02T04:45:39.675Z,74.01
2019-03-02T04:48:09.565Z,74.17
2019-03-02T04:50:39.603Z,74.28
2019-03-02T04:53:09.607Z,74.40
2019-03-02T04:55:39.631Z,74.51
2019-03-02T04:58:11.925Z,74.22
2019-03-02T05:00:41.995Z,74.23
2019-03-02T05:03:11.993Z,74.27
2019-03-02T05:05:43.459Z,74.42
2019-03-02T05:08:13.605Z,73.92
2019-03-02T05:10:43.618Z,74.13
2019-03-02T05:13:13.609Z,74.05
2019-03-02T05:15:43.644Z,74.46
2019-03-02T05:18:14.778Z,74.11
2019-03-02T05:20:45.329Z,74.20
2019-03-02T05:23:15.309Z,74.34
2019-03-02T05:25:45.295Z,74.41
2019-03-02T05:28:15.335Z,74.54
2019-03-02T05:30:45.343Z,74.43
2019-03-02T05:33:15.353Z,74.43
2019-03-02T05:35:47.791Z,74.41
2019-03-02T05:38:17.058Z,74.44
2019-03-02T05:40:47.115Z,74.58
2019-03-02T05:43:17.073Z,75.09
2019-03-02T05:45:47.101Z,75.02
2019-03-02T05:48:17.079Z,75.67
2019-03-02T05:50:47.099Z,75.33
2019-03-02T05:53:17.105Z,74.92
2019-03-02T05:55:49.966Z,75.54
2019-03-02T05:58:18.823Z,75.33
2019-03-02T06:00:48.819Z,75.18
2019-03-02T06:03:18.899Z,75.16
2019-03-02T06:05:48.917Z,74.97
2019-03-02T06:08:18.950Z,74.97
2019-03-02T06:10:48.948Z,74.96
2019-03-02T06:13:19.016Z,75.57
2019-03-02T06:15:49.132Z,75.56
2019-03-02T06:18:19.141Z,74.95
2019-03-02T06:20:49.160Z,75.14
2019-03-02T06:23:19.206Z,75.38
2019-03-02T06:25:49.232Z,74.11
2019-03-02T06:28:19.579Z,73.66
2019-03-02T06:30:51.029Z,73.94
2019-03-02T06:33:40.706Z,73.88
2019-03-02T06:36:10.153Z,74.27
2019-03-02T06:38:40.356Z,74.37
2019-03-02T06:41:10.299Z,74.29
2019-03-02T06:43:40.304Z,74.37
2019-03-02T06:46:10.286Z,74.76
2019-03-02T06:48:41.558Z,74.57
2019-03-02T06:51:12.523Z,74.68
2019-03-02T06:53:42.496Z,75.63
2019-03-02T06:56:12.428Z,75.61
2019-03-02T06:58:45.206Z,76.86
2019-03-02T07:01:15.220Z,76.74
2019-03-02T07:03:45.894Z,77.10
2019-03-02T07:06:16.663Z,76.62
2019-03-02T07:08:46.642Z,76.34
2019-03-02T07:11:16.642Z,76.34
2019-03-02T07:13:46.646Z,76.09
2019-03-02T07:16:20.007Z,76.71
2019-03-02T07:18:53.536Z,76.58
2019-03-02T07:21:23.638Z,76.46
2019-03-02T07:23:53.606Z,76.83
2019-03-02T07:26:23.588Z,76.43
2019-03-02T07:28:53.632Z,76.61
2019-03-02T07:31:23.731Z,76.25
2019-03-02T07:33:53.746Z,76.25
2019-03-02T07:36:23.828Z,76.62
2019-03-02T07:38:56.628Z,76.18
2019-03-02T07:41:25.606Z,76.07
2019-03-02T07:43:55.678Z,75.95
2019-03-02T07:46:25.789Z,75.95
2019-03-02T07:48:55.835Z,76.55
2019-03-02T07:51:25.911Z,76.45
2019-03-02T07:53:55.925Z,76.26
2019-03-02T07:56:26.048Z,76.27
2019-03-02T07:58:56.060Z,76.02
2019-03-02T08:01:26.108Z,75.89
2019-03-02T08:03:59.575Z,75.62
2019-03-02T08:06:28.195Z,75.16
2019-03-02T08:08:58.265Z,74.53
2019-03-02T08:11:28.693Z,74.30
2019-03-02T08:13:58.718Z,74.17
2019-03-02T08:16:30.119Z,74.09
2019-03-02T08:19:00.562Z,73.97
2019-03-02T08:21:32.467Z,73.86
2019-03-02T08:24:03.692Z,74.45
2019-03-02T08:26:33.679Z,74.50
2019-03-02T08:29:03.778Z,74.59
2019-03-02T08:31:33.840Z,74.55
2019-03-02T08:34:09.818Z,74.31
2019-03-02T08:36:37.943Z,75.12
2019-03-02T08:39:10.733Z,74.84
2019-03-02T08:41:40.123Z,74.59
2019-03-02T08:44:10.143Z,74.85
2019-03-02T08:46:40.157Z,74.52
2019-03-02T08:49:10.187Z,74.56
2019-03-02T08:51:40.212Z,74.48
2019-03-02T08:54:10.336Z,73.99
2019-03-02T08:56:43.918Z,72.88
2019-03-02T08:59:12.067Z,72.75
2019-03-02T09:01:42.167Z,72.42
2019-03-02T09:04:14.011Z,72.58
2019-03-02T09:06:44.075Z,72.18
2019-03-02T09:09:15.243Z,72.45
2019-03-02T09:11:45.830Z,72.46
2019-03-02T09:14:18.355Z,72.36
2019-03-02T09:16:51.770Z,71.92
2019-03-02T09:19:27.801Z,71.92
2019-03-02T09:26:01.035Z,72.05
2019-03-02T09:28:31.777Z,72.08
2019-03-02T09:31:03.368Z,72.32
2019-03-02T09:33:38.492Z,72.15
2019-03-02T09:36:14.805Z,71.82
2019-03-02T09:38:45.197Z,71.47
2019-03-02T09:41:22.034Z,71.56
2019-03-02T09:44:05.404Z,71.38
2019-03-02T09:46:39.525Z,71.31
2019-03-02T09:49:22.231Z,71.10
2019-03-02T09:51:56.944Z,70.68
2019-03-02T09:54:38.941Z,69.61
2019-03-02T09:57:12.766Z,69.96
2019-03-02T09:59:46.513Z,70.29
2019-03-02T10:02:17.355Z,69.79
2019-03-02T10:04:47.791Z,70.30
2019-03-02T10:07:25.259Z,70.16
2019-03-02T10:09:59.929Z,70.48
2019-03-02T10:12:30.569Z,70.43
2019-03-02T10:15:02.157Z,69.92
2019-03-02T10:17:38.438Z,69.60
2019-03-02T10:20:25.650Z,68.88
2019-03-02T10:23:16.041Z,68.58
2019-03-02T10:26:08.892Z,68.69
2019-03-02T10:28:44.012Z,68.64
2019-03-02T10:31:44.825Z,68.85
2019-03-02T10:34:18.073Z,68.56
2019-03-02T10:36:51.789Z,68.32
2019-03-02T10:39:22.031Z,68.41
2019-03-02T10:41:53.025Z,68.39
2019-03-02T10:44:24.327Z,67.65
2019-03-02T10:46:54.666Z,67.29
2019-03-02T10:50:13.465Z,67.57
2019-03-02T10:52:45.754Z,66.94
2019-03-02T10:55:17.469Z,66.74
2019-03-02T10:57:50.491Z,66.72
2019-03-02T11:00:29.717Z,66.29
2019-03-02T11:03:04.205Z,66.41
2019-03-02T11:06:10.163Z,66.55
2019-03-02T11:09:13.225Z,66.50
2019-03-02T11:15:44.916Z,66.33
2019-03-02T11:19:17.713Z,65.97
2019-03-02T11:21:53.196Z,65.78
2019-03-02T11:24:42.393Z,65.66
2019-03-02T11:27:34.299Z,65.65
2019-03-02T11:30:18.873Z,65.03
2019-03-02T11:33:27.502Z,65.32
2019-03-02T11:43:52.073Z,64.92
2019-03-02T11:46:29.897Z,65.22
2019-03-02T11:49:30.812Z,65.59
2019-03-02T11:52:26.259Z,65.21
2019-03-02T11:55:09.035Z,65.05
2019-03-02T11:58:07.529Z,64.95
2019-03-02T12:00:59.785Z,64.96
2019-03-02T12:03:56.830Z,65.63
2019-03-02T12:06:37.798Z,66.23
2019-03-02T12:09:43.128Z,65.17
2019-03-02T12:12:30.368Z,64.85
2019-03-02T12:15:20.047Z,64.66
2019-03-02T12:18:16.410Z,64.80
2019-03-02T12:20:57.188Z,64.32
2019-03-02T12:23:38.863Z,65.05
2019-03-02T12:26:27.145Z,65.07
2019-03-02T12:29:41.377Z,66.77
2019-03-02T12:32:25.145Z,67.34
2019-03-02T12:34:59.413Z,66.83
2019-03-02T12:38:07.105Z,67.03
2019-03-02T12:41:04.596Z,65.92
2019-03-02T12:43:58.381Z,67.01
2019-03-02T12:46:47.933Z,66.85
2019-03-02T12:49:37.641Z,66.74
2019-03-02T12:52:28.234Z,66.83
2019-03-02T12:55:32.701Z,66.55
2019-03-02T12:58:20.075Z,67.09
2019-03-02T13:01:00.658Z,66.67
2019-03-02T13:03:49.849Z,67.82
2019-03-02T13:06:48.139Z,66.58
2019-03-02T13:09:31.235Z,67.58
2019-03-02T13:12:19.281Z,66.26
2019-03-02T13:15:11.945Z,67.66
2019-03-02T13:18:00.244Z,68.29
2019-03-02T13:20:45.084Z,67.38
2019-03-02T13:23:38.993Z,66.68
2019-03-02T13:26:18.971Z,66.95
2019-03-02T13:28:57.384Z,68.10
2019-03-02T13:31:45.329Z,67.47
2019-03-02T13:34:37.014Z,65.88
2019-03-02T13:37:29.070Z,67.49
2019-03-02T13:40:18.422Z,66.80
2019-03-02T13:43:04.686Z,66.80
2019-03-02T13:45:55.422Z,67.59
2019-03-02T13:48:40.104Z,68.67
2019-03-02T13:51:31.284Z,68.63
2019-03-02T13:54:37.414Z,68.91
2019-03-02T13:57:26.073Z,66.74
2019-03-02T14:00:21.208Z,67.88
2019-03-02T14:03:06.538Z,68.33
2019-03-02T14:05:55.350Z,67.87
2019-03-02T14:08:44.342Z,68.08
2019-03-02T14:11:43.067Z,67.39
2019-03-02T14:14:30.429Z,67.26
2019-03-02T14:17:11.780Z,67.97
2019-03-02T14:20:07.931Z,68.76
2019-03-02T14:22:48.532Z,67.70
2019-03-02T14:25:42.088Z,67.85
2019-03-02T14:28:49.904Z,67.79
2019-03-02T14:31:48.880Z,67.25
2019-03-02T14:34:44.828Z,65.93
2019-03-02T14:37:47.908Z,66.56
2019-03-02T14:40:47.247Z,65.66
2019-03-02T14:43:41.882Z,65.41
2019-03-02T14:46:23.314Z,65.10
2019-03-02T14:49:17.569Z,65.90
2019-03-02T14:52:06.642Z,65.27
2019-03-02T14:54:56.964Z,65.20
2019-03-02T14:57:36.483Z,65.26
2019-03-02T15:00:31.667Z,65.65
2019-03-02T15:03:19.556Z,65.61
2019-03-02T15:06:17.695Z,66.04
2019-03-02T15:09:08.915Z,65.74
2019-03-02T15:11:47.570Z,65.67
2019-03-02T15:14:38.396Z,66.08
2019-03-02T15:17:24.518Z,66.05
2019-03-02T15:20:11.970Z,66.25
2019-03-02T15:22:53.106Z,66.09
2019-03-02T15:26:06.412Z,66.60
2019-03-02T15:28:56.607Z,66.60
2019-03-02T15:31:47.034Z,67.66
2019-03-02T15:34:35.108Z,67.09
2019-03-02T15:37:24.281Z,67.98
2019-03-02T15:40:02.380Z,68.54
2019-03-02T15:42:46.696Z,68.67
2019-03-02T15:45:31.921Z,68.95
2019-03-02T15:48:12.679Z,69.22
2019-03-02T15:50:54.457Z,69.64
2019-03-02T15:53:39.296Z,69.04
2019-03-02T15:56:26.827Z,69.16
2019-03-02T15:59:06.049Z,69.79
2019-03-02T16:02:00.235Z,69.67
2019-03-02T16:04:49.568Z,70.18
2019-03-02T16:07:38.710Z,70.47
2019-03-02T16:10:28.855Z,70.67
2019-03-02T16:13:36.278Z,71.31
2019-03-02T16:16:28.783Z,71.71
2019-03-02T16:19:14.519Z,73.51
2019-03-02T16:21:56.659Z,72.92
2019-03-02T16:24:42.428Z,72.34
2019-03-02T16:27:21.375Z,72.09
2019-03-02T16:30:16.683Z,72.16
2019-03-02T16:33:08.721Z,71.73
2019-03-02T16:36:04.674Z,71.96
2019-03-02T16:39:02.820Z,72.37
2019-03-02T16:41:52.145Z,72.13
2019-03-02T16:44:41.361Z,72.37
2019-03-02T16:47:24.499Z,72.55
2019-03-02T16:50:02.777Z,72.09
2019-03-02T16:52:54.753Z,72.33
2019-03-02T16:55:45.217Z,72.81
2019-03-02T16:58:38.831Z,73.71
2019-03-02T17:01:27.875Z,73.70
2019-03-02T17:04:29.203Z,73.33
2019-03-02T17:07:12.540Z,73.00
2019-03-02T17:09:49.459Z,73.42
2019-03-02T17:12:40.846Z,73.52
2019-03-02T17:15:29.019Z,73.65
2019-03-02T17:18:36.383Z,73.54
2019-03-02T17:21:10.835Z,74.35
2019-03-02T17:23:54.440Z,74.75
2019-03-02T17:26:35.859Z,75.01
2019-03-02T17:29:28.929Z,74.83
2019-03-02T17:32:25.721Z,74.92
2019-03-02T17:35:21.174Z,74.95
2019-03-02T17:38:08.159Z,75.28
2019-03-02T17:40:49.478Z,75.61
2019-03-02T17:43:46.799Z,75.59
2019-03-02T17:46:35.200Z,75.15
2019-03-02T17:49:15.557Z,75.80
2019-03-02T17:52:13.331Z,75.24
2019-03-02T17:55:04.233Z,76.13
2019-03-02T17:58:02.726Z,76.82
2019-03-02T18:01:02.283Z,76.81
2019-03-02T18:03:50.549Z,77.56
2019-03-02T18:06:29.414Z,77.16
2019-03-02T18:09:30.754Z,77.40
2019-03-02T18:12:29.460Z,77.43
2019-03-02T18:15:14.377Z,77.80
2019-03-02T18:17:55.519Z,77.42
2019-03-02T18:20:25.445Z,77.14
2019-03-02T18:22:55.535Z,76.78
2019-03-02T18:25:25.599Z,76.24
2019-03-02T18:27:55.821Z,76.37
2019-03-02T18:30:25.898Z,76.71
2019-03-02T18:32:58.971Z,76.29
2019-03-02T18:35:29.040Z,76.79
2019-03-02T18:37:59.472Z,76.25
2019-03-02T18:40:29.536Z,76.46
2019-03-02T18:42:59.609Z,76.23
2019-03-02T18:45:29.674Z,76.29
2019-03-02T18:48:03.229Z,76.76
2019-03-02T18:50:41.341Z,76.92
2019-03-02T18:53:11.483Z,76.29
2019-03-02T18:55:41.540Z,76.82
2019-03-02T18:58:11.604Z,76.78
2019-03-02T19:00:45.630Z,76.39
2019-03-02T19:03:15.693Z,76.54
2019-03-02T19:05:46.121Z,77.11
2019-03-02T19:08:17.559Z,77.05
2019-03-02T19:10:47.613Z,77.96
2019-03-02T19:13:17.742Z,77.41
2019-03-02T19:15:53.783Z,78.30
2019-03-02T19:18:19.666Z,78.04
2019-03-02T19:20:49.724Z,78.08
2019-03-02T19:23:19.862Z,78.51
2019-03-02T19:25:49.937Z,78.13
2019-03-02T19:28:20.078Z,77.92
2019-03-02T19:30:50.120Z,78.17
2019-03-02T19:33:20.241Z,77.71
2019-03-02T19:35:50.287Z,77.90
2019-03-02T19:38:20.393Z,78.12
2019-03-02T19:40:50.922Z,78.60
2019-03-02T19:43:21.298Z,78.12
2019-03-02T19:45:51.410Z,78.58
2019-03-02T19:48:21.467Z,78.65
2019-03-02T19:50:51.567Z,78.50
2019-03-02T19:53:21.612Z,78.82
2019-03-02T19:55:51.693Z,78.46
2019-03-02T19:58:21.746Z,78.46
2019-03-02T20:00:52.232Z,79.10
2019-03-02T20:03:22.543Z,79.41
2019-03-02T20:05:57.329Z,79.58
2019-03-02T20:08:36.558Z,79.40
2019-03-02T20:11:09.284Z,78.93
2019-03-02T20:13:54.438Z,79.59
2019-03-02T20:16:27.951Z,79.33
2019-03-02T20:19:00.931Z,79.88
2019-03-02T20:21:31.303Z,79.98
2019-03-02T20:24:01.710Z,79.73
2019-03-02T20:26:32.205Z,80.26
2019-03-02T20:29:02.473Z,80.29
2019-03-02T20:31:40.282Z,79.98
2019-03-02T20:34:15.649Z,79.79
2019-03-02T20:36:53.120Z,79.74
2019-03-02T20:39:28.223Z,79.93
2019-03-02T20:41:58.566Z,79.71
2019-03-02T20:44:28.818Z,80.66
2019-03-02T20:46:59.133Z,80.79
2019-03-02T20:49:29.259Z,80.36
2019-03-02T20:51:59.356Z,80.93
2019-03-02T20:54:29.551Z,81.05
2019-03-02T20:56:59.670Z,81.12
2019-03-02T20:59:29.736Z,80.71
2019-03-02T21:01:59.963Z,80.52
2019-03-02T21:04:30.082Z,81.45
2019-03-02T21:07:00.187Z,81.76
2019-03-02T21:09:30.251Z,81.63
2019-03-02T21:12:00.350Z,81.67
2019-03-02T21:14:30.446Z,82.17
2019-03-02T21:17:00.550Z,82.23
2019-03-02T21:19:30.634Z,82.24
2019-03-02T21:22:00.719Z,82.01
2019-03-02T21:24:30.809Z,82.53
2019-03-02T21:27:00.869Z,82.80
2019-03-02T21:29:30.933Z,82.92
2019-03-02T21:32:01.011Z,82.78
2019-03-02T21:34:31.160Z,82.83
2019-03-02T21:37:01.295Z,83.31
2019-03-02T21:39:31.380Z,83.08
2019-03-02T21:42:01.399Z,82.88
2019-03-02T21:44:31.547Z,82.71
2019-03-02T21:47:01.593Z,82.81
2019-03-02T21:49:31.685Z,83.04
2019-03-02T21:52:01.749Z,83.48
2019-03-02T21:54:31.826Z,84.11
2019-03-02T21:57:01.874Z,83.87
2019-03-02T21:59:31.914Z,83.99
2019-03-02T22:02:01.957Z,83.87
2019-03-02T22:04:32.055Z,84.32
2019-03-02T22:07:02.111Z,84.71
2019-03-02T22:09:32.325Z,84.52
2019-03-02T22:12:02.463Z,84.44
2019-03-02T22:14:32.667Z,84.69
2019-03-02T22:17:04.257Z,85.25
2019-03-02T22:19:34.307Z,84.62
2019-03-02T22:22:04.446Z,85.77
2019-03-02T22:24:34.532Z,85.22
2019-03-02T22:27:04.615Z,86.03
2019-03-02T22:29:34.667Z,85.92
2019-03-02T22:32:04.721Z,86.15
2019-03-02T22:34:34.714Z,86.92
2019-03-02T22:37:04.751Z,87.52
2019-03-02T22:39:34.776Z,87.43
2019-03-02T22:42:05.100Z,87.24
2019-03-02T22:44:35.119Z,87.28
2019-03-02T22:47:05.229Z,87.90
2019-03-02T22:49:35.249Z,87.74
2019-03-02T22:52:05.386Z,87.70
2019-03-02T22:54:35.395Z,88.52
2019-03-02T22:57:05.536Z,88.45
2019-03-02T22:59:35.722Z,88.65
2019-03-02T23:02:19.930Z,88.41
2019-03-02T23:04:49.983Z,88.93
2019-03-02T23:07:20.120Z,89.26
2019-03-02T23:09:50.647Z,89.13
2019-03-02T23:12:22.389Z,90.04
2019-03-02T23:14:52.713Z,90.05
2019-03-02T23:17:22.771Z,90.98
2019-03-02T23:19:52.840Z,92.04
2019-03-02T23:22:22.907Z,92.60
2019-03-02T23:24:52.983Z,93.73
2019-03-02T23:27:22.988Z,94.35
2019-03-02T23:29:53.041Z,94.14
2019-03-02T23:32:23.069Z,94.64
2019-03-02T23:34:53.108Z,95.02
2019-03-02T23:37:23.142Z,95.65
2019-03-02T23:39:53.204Z,95.38
2019-03-02T23:42:23.242Z,96.29
2019-03-02T23:44:53.396Z,96.07
2019-03-02T23:47:23.399Z,95.61
2019-03-02T23:49:53.815Z,96.42
2019-03-02T23:52:23.831Z,96.35
2019-03-02T23:54:53.900Z,96.27
2019-03-02T23:57:23.946Z,96.45
2019-03-02T23:59:54.014Z,96.60
